createdAt,value
2017-07-28T00:00:06.532Z,108.1
2017-07-28T00:01:06.238Z,107.6
2017-07-28T00:02:05.449Z,107.5
2017-07-28T00:03:04.676Z,107.2
2017-07-28T00:04:03.643Z,107.2
2017-07-28T00:05:03.230Z,107.3
2017-07-28T00:05:33.640Z,107.3
2017-07-28T00:07:01.922Z,107.2
2017-07-28T00:08:01.000Z,107.3
2017-07-28T00:09:00.198Z,107.1
2017-07-28T00:09:59.295Z,107.3
2017-07-28T00:10:58.877Z,107.3
2017-07-28T00:11:58.077Z,107.2
2017-07-28T00:12:57.156Z,107.3
2017-07-28T00:13:56.861Z,107.5
2017-07-28T00:14:56.071Z,107.5
2017-07-28T00:15:55.296Z,107.6
2017-07-28T00:16:54.378Z,107.8
2017-07-28T00:17:53.582Z,108.1
2017-07-28T00:18:53.284Z,108.2
2017-07-28T00:19:52.482Z,108.4
2017-07-28T00:20:51.684Z,108.5
2017-07-28T00:21:50.882Z,108.4
2017-07-28T00:22:21.297Z,108.4
2017-07-28T00:22:51.821Z,108.6
2017-07-28T00:23:22.092Z,108.6
2017-07-28T00:23:52.609Z,108.7
2017-07-28T00:24:23.117Z,108.7
2017-07-28T00:24:53.516Z,108.7
2017-07-28T00:25:24.031Z,108.7
2017-07-28T00:25:54.533Z,108.8
2017-07-28T00:26:25.047Z,108.8
2017-07-28T00:27:46.390Z,108.9
2017-07-28T00:28:45.981Z,108.9
2017-07-28T00:29:45.082Z,109
2017-07-28T00:30:44.283Z,108.8
2017-07-28T00:31:43.895Z,108.8
2017-07-28T00:32:43.102Z,108.8
2017-07-28T00:33:42.319Z,108.8
2017-07-28T00:34:41.644Z,108.5
2017-07-28T00:35:40.736Z,108.2
2017-07-28T00:37:39.326Z,108.6
2017-07-28T00:38:38.522Z,108.6
2017-07-28T00:40:37.120Z,108.8
2017-07-28T00:41:36.211Z,108.9
2017-07-28T00:42:35.909Z,108.8
2017-07-28T00:43:35.146Z,108.7
2017-07-28T00:44:34.232Z,108.8
2017-07-28T00:45:33.434Z,108.7
2017-07-28T00:47:31.911Z,108.7
2017-07-28T00:48:31.622Z,108.7
2017-07-28T00:49:30.714Z,108.7
2017-07-28T00:50:29.800Z,108.7
2017-07-28T00:51:29.389Z,108.7
2017-07-28T00:52:28.731Z,108.9
2017-07-28T00:54:27.199Z,109
2017-07-28T00:55:26.285Z,109
2017-07-28T00:56:25.375Z,109
2017-07-28T00:57:24.965Z,109.1
2017-07-28T00:58:24.166Z,109.3
2017-07-28T00:59:23.375Z,109.5
2017-07-28T01:00:22.578Z,109.5
2017-07-28T01:01:21.931Z,109.6
2017-07-28T01:02:21.137Z,109.6
2017-07-28T01:03:20.349Z,109.6
2017-07-28T01:04:19.825Z,109.6
2017-07-28T01:05:19.032Z,109.6
2017-07-28T01:06:18.235Z,109.7
2017-07-28T01:07:17.441Z,109.6
2017-07-28T01:08:17.028Z,109.7
2017-07-28T01:09:16.107Z,109.7
2017-07-28T01:10:15.320Z,109.7
2017-07-28T01:11:14.525Z,109.7
2017-07-28T01:12:13.728Z,109.7
2017-07-28T01:13:13.307Z,109.7
2017-07-28T01:14:12.517Z,109.9
2017-07-28T01:15:11.855Z,109.9
2017-07-28T01:16:10.941Z,110
2017-07-28T01:16:41.451Z,110
2017-07-28T01:17:11.970Z,110
2017-07-28T01:18:09.423Z,110
2017-07-28T01:19:09.003Z,110
2017-07-28T01:20:08.092Z,110.1
2017-07-28T01:21:07.294Z,110
2017-07-28T01:21:37.801Z,110
2017-07-28T01:23:05.703Z,110
2017-07-28T01:24:05.291Z,110.1
2017-07-28T01:25:04.270Z,110.2
2017-07-28T01:26:03.847Z,110.1
2017-07-28T01:27:02.807Z,110.1
2017-07-28T01:28:02.275Z,110.2
2017-07-28T01:29:01.480Z,110.2
2017-07-28T01:30:00.560Z,110.1
2017-07-28T01:31:00.159Z,110.1
2017-07-28T01:31:30.683Z,110.1
2017-07-28T01:32:01.076Z,110.1
2017-07-28T01:32:31.481Z,110.1
2017-07-28T01:33:01.758Z,110.1
2017-07-28T01:33:57.822Z,110.1
2017-07-28T01:34:57.020Z,110.1
2017-07-28T01:35:56.611Z,110.1
2017-07-28T01:36:55.812Z,110.1
2017-07-28T01:37:55.035Z,110.2
2017-07-28T01:38:54.240Z,110.1
2017-07-28T01:39:53.305Z,110.1
2017-07-28T01:40:52.872Z,110.2
2017-07-28T01:41:52.078Z,110.1
2017-07-28T01:43:50.690Z,110.1
2017-07-28T01:44:49.896Z,110
2017-07-28T01:45:48.982Z,110
2017-07-28T01:46:48.188Z,110
2017-07-28T01:47:47.886Z,110.1
2017-07-28T01:48:47.090Z,110
2017-07-28T01:51:44.556Z,109.8
2017-07-28T02:01:37.648Z,109.3
2017-07-28T02:06:33.685Z,109.1
2017-07-28T02:07:33.274Z,108.9
2017-07-28T02:10:30.628Z,109.2
2017-07-28T02:11:30.324Z,109.4
2017-07-28T02:12:00.609Z,109.4
2017-07-28T02:12:30.880Z,109.4
2017-07-28T02:13:01.287Z,109.4
2017-07-28T02:13:32.073Z,109.4
2017-07-28T02:14:02.588Z,109.4
2017-07-28T02:14:33.096Z,109.4
2017-07-28T02:15:03.498Z,109.4
2017-07-28T02:17:25.749Z,109.6
2017-07-28T02:19:24.332Z,109.8
2017-07-28T02:22:22.318Z,109.6
2017-07-28T02:23:21.523Z,109.7
2017-07-28T02:24:20.721Z,109.7
2017-07-28T02:24:51.243Z,109.7
2017-07-28T02:25:21.743Z,109.8
2017-07-28T02:25:52.258Z,109.8
2017-07-28T02:27:18.396Z,109.5
2017-07-28T02:29:16.852Z,109.8
2017-07-28T02:30:16.437Z,109.7
2017-07-28T02:32:14.809Z,109.4
2017-07-28T02:34:13.408Z,109.1
2017-07-28T02:37:10.882Z,109.4
2017-07-28T02:38:10.584Z,109.3
2017-07-28T02:39:09.786Z,109.4
2017-07-28T02:41:08.352Z,109.4
2017-07-28T02:42:07.545Z,109.5
2017-07-28T02:42:37.933Z,109.5
2017-07-28T02:44:05.827Z,109.4
2017-07-28T02:45:05.294Z,109.4
2017-07-28T02:46:04.643Z,109.4
2017-07-28T02:47:03.596Z,109.5
2017-07-28T02:48:03.307Z,109.5
2017-07-28T02:49:02.499Z,109.5
2017-07-28T02:50:01.701Z,109.6
2017-07-28T02:51:00.785Z,109.6
2017-07-28T02:51:59.986Z,109.6
2017-07-28T02:53:58.831Z,109.6
2017-07-28T02:54:58.027Z,109.2
2017-07-28T02:57:56.010Z,109.5
2017-07-28T02:58:55.086Z,109.4
2017-07-28T02:59:54.168Z,109.6
2017-07-28T03:01:53.014Z,109.8
2017-07-28T03:03:51.620Z,109.5
2017-07-28T03:04:50.570Z,109.5
2017-07-28T03:05:21.088Z,109.5
2017-07-28T03:06:48.974Z,109.8
2017-07-28T03:07:48.692Z,110
2017-07-28T03:08:47.893Z,110.1
2017-07-28T03:10:46.482Z,110.3
2017-07-28T03:11:45.568Z,110.5
2017-07-28T03:12:44.770Z,110.6
2017-07-28T03:13:43.965Z,110.6
2017-07-28T03:14:43.158Z,110.6
2017-07-28T03:15:42.861Z,111
2017-07-28T03:16:42.075Z,111.1
2017-07-28T03:17:41.153Z,111
2017-07-28T03:18:40.353Z,111
2017-07-28T03:19:39.558Z,110.9
2017-07-28T03:20:38.745Z,111
2017-07-28T03:22:37.342Z,111.1
2017-07-28T03:23:36.918Z,111.2
2017-07-28T03:24:35.997Z,111
2017-07-28T03:25:35.194Z,110.9
2017-07-28T03:26:34.383Z,110.6
2017-07-28T03:27:33.581Z,110.7
2017-07-28T03:28:33.266Z,110.8
2017-07-28T03:29:32.246Z,110.4
2017-07-28T03:30:31.458Z,110.2
2017-07-28T03:31:30.557Z,110.1
2017-07-28T03:32:30.123Z,110.3
2017-07-28T03:33:29.336Z,110.4
2017-07-28T03:35:27.927Z,110.4
2017-07-28T03:36:27.129Z,110.4
2017-07-28T03:37:26.710Z,110.5
2017-07-28T03:38:25.794Z,110.5
2017-07-28T03:39:24.878Z,110.4
2017-07-28T03:40:24.077Z,110.5
2017-07-28T03:41:23.666Z,110.6
2017-07-28T03:43:22.044Z,110.6
2017-07-28T03:44:21.242Z,110.7
2017-07-28T03:45:20.437Z,110.7
2017-07-28T03:46:20.011Z,110.6
2017-07-28T03:47:19.090Z,110.7
2017-07-28T03:48:18.280Z,110.7
2017-07-28T03:49:17.468Z,110.8
2017-07-28T03:50:16.658Z,110.9
2017-07-28T03:50:47.173Z,110.9
2017-07-28T03:51:17.688Z,111
2017-07-28T03:51:48.081Z,111
2017-07-28T03:53:14.462Z,111.3
2017-07-28T03:54:14.158Z,111.3
2017-07-28T03:55:13.336Z,111.4
2017-07-28T03:56:12.301Z,111.4
2017-07-28T03:57:11.495Z,111.6
2017-07-28T03:58:10.843Z,111.6
2017-07-28T03:59:10.037Z,111.6
2017-07-28T04:00:09.718Z,111.5
2017-07-28T04:00:39.994Z,111.5
2017-07-28T04:02:08.263Z,111.6
2017-07-28T04:03:07.462Z,111.6
2017-07-28T04:04:06.731Z,111.5
2017-07-28T04:05:05.932Z,111.5
2017-07-28T04:06:05.000Z,111.6
2017-07-28T04:07:04.202Z,111.4
2017-07-28T04:08:03.659Z,111.2
2017-07-28T04:09:02.736Z,111.2
2017-07-28T04:10:01.925Z,111
2017-07-28T04:11:01.389Z,111
2017-07-28T04:12:00.475Z,111.1
2017-07-28T04:12:59.676Z,111.1
2017-07-28T04:13:30.079Z,111.1
2017-07-28T04:14:00.587Z,111.1
2017-07-28T04:14:31.094Z,111.1
2017-07-28T04:15:01.591Z,111.3
2017-07-28T04:15:31.989Z,111.3
2017-07-28T04:16:02.491Z,111.2
2017-07-28T04:16:57.162Z,111
2017-07-28T04:17:56.340Z,110.9
2017-07-28T04:18:55.416Z,109.5
2017-07-28T04:19:54.619Z,109.4
2017-07-28T04:20:53.827Z,109.6
2017-07-28T04:21:53.406Z,109.8
2017-07-28T04:22:52.480Z,109.8
2017-07-28T04:24:51.070Z,110.3
2017-07-28T04:30:46.707Z,109.1
2017-07-28T04:31:17.221Z,109.1
2017-07-28T04:31:47.723Z,109.1
2017-07-28T04:32:18.231Z,109.1
2017-07-28T04:32:48.737Z,109.1
2017-07-28T04:33:19.242Z,109.1
2017-07-28T04:34:43.605Z,109.7
2017-07-28T04:35:42.795Z,109.8
2017-07-28T04:36:41.998Z,109.7
2017-07-28T04:37:41.574Z,109.8
2017-07-28T04:38:40.786Z,109.8
2017-07-28T04:39:39.739Z,110.3
2017-07-28T04:40:38.925Z,110.2
2017-07-28T04:41:38.628Z,110.3
2017-07-28T04:42:37.822Z,110.4
2017-07-28T04:43:36.911Z,110.4
2017-07-28T04:44:35.997Z,110.5
2017-07-28T04:45:35.195Z,110.8
2017-07-28T04:48:33.051Z,110.9
2017-07-28T04:49:32.241Z,111
2017-07-28T04:50:31.817Z,111.1
2017-07-28T04:51:31.001Z,111.3
2017-07-28T04:52:30.072Z,111.1
2017-07-28T04:53:29.531Z,111.1
2017-07-28T04:54:28.617Z,111.2
2017-07-28T04:54:58.881Z,111.2
2017-07-28T04:55:29.383Z,111.2
2017-07-28T04:56:27.447Z,111.2
2017-07-28T04:57:26.523Z,111.5
2017-07-28T04:58:25.599Z,111.5
2017-07-28T04:59:24.799Z,111.5
2017-07-28T05:00:24.506Z,111.7
2017-07-28T05:01:23.698Z,111.7
2017-07-28T05:02:22.781Z,111.8
2017-07-28T05:03:21.989Z,111.9
2017-07-28T05:04:21.061Z,112
2017-07-28T05:05:20.642Z,112.1
2017-07-28T05:06:19.835Z,112
2017-07-28T05:07:19.031Z,112.1
2017-07-28T05:08:18.106Z,112.1
2017-07-28T05:09:17.690Z,112.1
2017-07-28T05:10:16.884Z,112.1
2017-07-28T05:11:16.084Z,112.2
2017-07-28T05:12:15.284Z,112.2
2017-07-28T05:13:14.471Z,112.2
2017-07-28T05:14:14.039Z,112.2
2017-07-28T05:15:13.109Z,112.3
2017-07-28T05:16:12.199Z,112.4
2017-07-28T05:17:11.405Z,112.3
2017-07-28T05:18:11.099Z,112.1
2017-07-28T05:19:10.170Z,112.2
2017-07-28T05:20:09.373Z,112.3
2017-07-28T05:21:08.448Z,112.3
2017-07-28T05:22:08.144Z,112.4
2017-07-28T05:23:06.987Z,112.4
2017-07-28T05:24:06.327Z,112.3
2017-07-28T05:24:36.611Z,112.3
2017-07-28T05:25:07.115Z,112.4
2017-07-28T05:26:05.076Z,112.6
2017-07-28T05:27:04.164Z,112.4
2017-07-28T05:28:03.250Z,111.7
2017-07-28T05:29:02.530Z,111.5
2017-07-28T05:30:02.033Z,111.4
2017-07-28T05:31:01.119Z,111.2
2017-07-28T05:32:00.318Z,111.2
2017-07-28T05:32:59.905Z,111.2
2017-07-28T05:33:59.104Z,111.5
2017-07-28T05:34:58.322Z,111.6
2017-07-28T05:35:57.519Z,111.3
2017-07-28T05:36:56.707Z,111.1
2017-07-28T05:37:55.840Z,111.3
2017-07-28T05:38:55.436Z,111.5
2017-07-28T05:39:54.633Z,111.6
2017-07-28T05:40:25.150Z,111.6
2017-07-28T05:40:55.658Z,111.7
2017-07-28T05:41:26.163Z,111.7
2017-07-28T05:41:56.549Z,111.9
2017-07-28T05:42:52.604Z,112
2017-07-28T05:43:51.564Z,112
2017-07-28T05:45:50.039Z,111.7
2017-07-28T05:46:49.237Z,111.3
2017-07-28T05:47:48.930Z,111.2
2017-07-28T05:48:47.891Z,111.3
2017-07-28T05:49:47.363Z,111.2
2017-07-28T05:50:46.318Z,110.9
2017-07-28T05:51:45.540Z,111
2017-07-28T05:52:45.002Z,111.2
2017-07-28T05:53:44.196Z,111.3
2017-07-28T05:55:42.889Z,111.4
2017-07-28T05:56:41.838Z,111.5
2017-07-28T05:57:41.552Z,111.1
2017-07-28T05:58:40.768Z,111.1
2017-07-28T05:59:39.960Z,111.4
2017-07-28T06:00:39.166Z,111.2
2017-07-28T06:01:38.250Z,111.1
2017-07-28T06:02:37.448Z,111.2
2017-07-28T06:03:37.050Z,111.3
2017-07-28T06:04:36.257Z,111.5
2017-07-28T06:05:35.450Z,111.5
2017-07-28T06:06:34.536Z,111.3
2017-07-28T06:07:33.986Z,111.5
2017-07-28T06:08:33.453Z,111.5
2017-07-28T06:09:32.651Z,111.3
2017-07-28T06:10:31.857Z,111.1
2017-07-28T06:11:30.939Z,111.1
2017-07-28T06:12:30.285Z,111.3
2017-07-28T06:13:29.763Z,111.4
2017-07-28T06:14:28.724Z,111.7
2017-07-28T06:15:28.184Z,111.7
2017-07-28T06:16:27.385Z,111.3
2017-07-28T06:17:26.570Z,110.8
2017-07-28T06:18:26.155Z,110.7
2017-07-28T06:19:25.116Z,111
2017-07-28T06:19:55.493Z,111
2017-07-28T06:20:25.881Z,110.7
2017-07-28T06:20:56.275Z,110.7
2017-07-28T06:21:26.674Z,110.7
2017-07-28T06:21:57.180Z,110.7
2017-07-28T06:23:22.558Z,110.6
2017-07-28T06:24:21.758Z,110.6
2017-07-28T06:25:20.721Z,110.6
2017-07-28T06:26:19.915Z,110.8
2017-07-28T06:27:19.383Z,110.9
2017-07-28T06:28:18.464Z,110.4
2017-07-28T06:29:18.155Z,110
2017-07-28T06:30:17.358Z,109.5
2017-07-28T06:31:16.429Z,109.2
2017-07-28T06:31:46.924Z,109.2
2017-07-28T06:32:17.423Z,109
2017-07-28T06:32:47.840Z,109
2017-07-28T06:33:18.351Z,109.2
2017-07-28T06:33:48.854Z,109.2
2017-07-28T06:35:13.485Z,109.3
2017-07-28T06:36:12.575Z,109.7
2017-07-28T06:37:12.163Z,109.5
2017-07-28T06:38:11.360Z,109
2017-07-28T06:39:10.433Z,109
2017-07-28T06:40:10.131Z,108.5
2017-07-28T06:41:09.328Z,106.8
2017-07-28T06:42:08.397Z,107.6
2017-07-28T06:43:07.592Z,108.1
2017-07-28T06:44:06.799Z,108.2
2017-07-28T06:45:06.380Z,108.8
2017-07-28T06:46:05.349Z,108.1
2017-07-28T06:47:04.935Z,106.9
2017-07-28T06:48:04.136Z,106.8
2017-07-28T06:49:03.478Z,106.6
2017-07-28T06:50:02.677Z,106.6
2017-07-28T06:51:01.908Z,106.2
2017-07-28T06:51:32.357Z,106.2
2017-07-28T06:52:02.869Z,106.8
2017-07-28T06:53:00.445Z,106.8
2017-07-28T06:53:59.542Z,106.4
2017-07-28T06:54:59.129Z,106.6
2017-07-28T06:55:58.197Z,106.1
2017-07-28T06:56:57.774Z,105.9
2017-07-28T06:57:56.858Z,104.8
2017-07-28T06:58:55.926Z,104.4
2017-07-28T06:59:55.119Z,104.7
2017-07-28T07:00:54.816Z,104.8
2017-07-28T07:01:54.022Z,105.4
2017-07-28T07:02:53.220Z,103.4
2017-07-28T07:03:52.429Z,103.3
2017-07-28T07:04:51.499Z,103
2017-07-28T07:05:51.180Z,102.8
2017-07-28T07:06:50.260Z,103.7
2017-07-28T07:07:49.460Z,104.2
2017-07-28T07:08:48.805Z,104.4
2017-07-28T07:09:47.884Z,104.6
2017-07-28T07:10:47.472Z,103.6
2017-07-28T07:11:46.814Z,103.4
2017-07-28T07:12:45.885Z,103.7
2017-07-28T07:13:16.283Z,103.7
2017-07-28T07:14:44.707Z,103.9
2017-07-28T07:15:43.900Z,101.1
2017-07-28T07:16:43.101Z,100.1
2017-07-28T07:17:42.299Z,99
2017-07-28T07:18:41.394Z,98.4
2017-07-28T07:19:40.982Z,99.2
2017-07-28T07:20:39.941Z,99.7
2017-07-28T07:21:39.643Z,99.2
2017-07-28T07:22:38.600Z,99.1
2017-07-28T07:23:37.681Z,99.9
2017-07-28T07:24:37.398Z,98.7
2017-07-28T07:25:36.487Z,96.2
2017-07-28T07:26:36.078Z,93.4
2017-07-28T07:27:35.279Z,92.3
2017-07-28T07:28:34.253Z,92.9
2017-07-28T07:29:04.766Z,92.9
2017-07-28T07:29:35.058Z,91.8
2017-07-28T07:30:32.619Z,91.3
2017-07-28T07:31:32.090Z,92.4
2017-07-28T07:32:31.443Z,91.2
2017-07-28T07:34:30.303Z,89.8
2017-07-28T07:35:29.501Z,89.7
2017-07-28T07:36:28.826Z,90.3
2017-07-28T07:37:27.790Z,90.3
2017-07-28T07:38:26.877Z,89.5
2017-07-28T07:39:26.560Z,90.5
2017-07-28T07:39:56.700Z,90.5
2017-07-28T07:40:27.481Z,88.9
2017-07-28T07:41:25.045Z,86.9
2017-07-28T07:42:24.261Z,87.4
2017-07-28T07:43:23.850Z,87.3
2017-07-28T07:44:22.932Z,86.8
2017-07-28T07:46:21.277Z,86.3
2017-07-28T07:47:20.851Z,84.7
2017-07-28T07:48:19.937Z,85.5
2017-07-28T07:49:19.134Z,85.2
2017-07-28T07:50:18.719Z,85.5
2017-07-28T07:51:17.913Z,86.5
2017-07-28T07:52:17.120Z,85.8
2017-07-28T07:53:16.340Z,86.1
2017-07-28T07:54:15.533Z,87.1
2017-07-28T07:55:15.121Z,86.6
2017-07-28T07:56:14.336Z,86.7
2017-07-28T07:57:13.555Z,88.2
2017-07-28T07:58:13.019Z,89.2
2017-07-28T07:58:43.530Z,89.2
2017-07-28T07:59:13.925Z,87.9
2017-07-28T07:59:44.440Z,87.9
2017-07-28T08:02:10.228Z,87.8
2017-07-28T08:03:09.302Z,85.8
2017-07-28T08:04:08.480Z,86.5
2017-07-28T08:06:07.071Z,84.8
2017-07-28T08:07:06.647Z,84.3
2017-07-28T08:08:05.709Z,84.2
2017-07-28T08:09:05.090Z,84.5
2017-07-28T08:10:04.041Z,85
2017-07-28T08:11:03.752Z,85
2017-07-28T08:13:02.339Z,84.9
2017-07-28T08:15:00.929Z,83.7
2017-07-28T08:16:00.122Z,84.8
2017-07-28T08:16:59.325Z,84
2017-07-28T08:17:58.531Z,84.2
2017-07-28T08:18:57.722Z,82.5
2017-07-28T08:19:57.307Z,81.4
2017-07-28T08:20:56.262Z,78.1
2017-07-28T08:21:27.074Z,78.1
2017-07-28T08:21:57.470Z,78.3
2017-07-28T08:22:27.861Z,78.3
2017-07-28T08:23:54.120Z,78.1
2017-07-28T08:24:53.822Z,79.2
2017-07-28T08:25:52.784Z,77.8
2017-07-28T08:26:52.474Z,77.8
2017-07-28T08:28:51.057Z,78.5
2017-07-28T08:29:50.258Z,78.7
2017-07-28T08:30:49.351Z,79.6
2017-07-28T08:31:48.938Z,80.9
2017-07-28T08:32:48.026Z,81.2
2017-07-28T08:33:47.229Z,81.5
2017-07-28T08:34:46.696Z,81
2017-07-28T08:35:45.918Z,81.4
2017-07-28T08:36:45.004Z,81
2017-07-28T08:37:44.706Z,80.7
2017-07-28T08:38:43.901Z,80.9
2017-07-28T08:39:43.098Z,80.1
2017-07-28T08:40:13.602Z,80.1
2017-07-28T08:40:43.868Z,79.8
2017-07-28T08:41:41.941Z,79.1
2017-07-28T08:42:41.016Z,80
2017-07-28T08:43:40.476Z,77.6
2017-07-28T08:44:39.563Z,76.5
2017-07-28T08:45:39.142Z,77.1
2017-07-28T08:46:38.334Z,77.8
2017-07-28T08:47:37.539Z,77.8
2017-07-28T08:48:37.109Z,78.1
2017-07-28T08:49:36.076Z,78.8
2017-07-28T08:50:35.663Z,78
2017-07-28T08:51:06.170Z,78
2017-07-28T08:51:36.671Z,74.8
2017-07-28T08:52:07.182Z,74.8
2017-07-28T08:52:37.450Z,73.1
2017-07-28T08:53:07.965Z,73.1
2017-07-28T08:54:32.830Z,73.2
2017-07-28T08:55:32.032Z,72.2
2017-07-28T08:56:31.239Z,73.7
2017-07-28T08:57:30.581Z,75.1
2017-07-28T08:58:29.652Z,73.8
2017-07-28T08:59:29.123Z,72.1
2017-07-28T09:00:28.694Z,72.7
2017-07-28T09:01:27.771Z,73.7
2017-07-28T09:02:27.346Z,74.1
2017-07-28T09:03:26.293Z,74.1
2017-07-28T09:04:25.910Z,74.5
2017-07-28T09:05:24.991Z,74.7
2017-07-28T09:06:24.578Z,74.6
2017-07-28T09:07:23.657Z,74.6
2017-07-28T09:08:22.846Z,74.7
2017-07-28T09:09:22.442Z,73.5
2017-07-28T09:10:21.510Z,71.6
2017-07-28T09:11:21.207Z,72.4
2017-07-28T09:12:20.405Z,73.2
2017-07-28T09:13:19.596Z,70.5
2017-07-28T09:14:18.800Z,70.5
2017-07-28T09:15:18.379Z,69.4
2017-07-28T09:16:17.588Z,68.6
2017-07-28T09:17:16.704Z,69.4
2017-07-28T09:18:16.422Z,68.8
2017-07-28T09:19:15.633Z,69.7
2017-07-28T09:20:14.834Z,68.8
2017-07-28T09:21:14.170Z,67.5
2017-07-28T09:22:13.125Z,66.9
2017-07-28T09:23:12.598Z,67.5
2017-07-28T09:23:42.982Z,67.5
2017-07-28T09:24:13.489Z,67.7
2017-07-28T09:25:11.571Z,68.4
2017-07-28T09:26:10.639Z,68.3
2017-07-28T09:27:10.233Z,68.6
2017-07-28T09:28:09.310Z,69.2
2017-07-28T09:29:08.781Z,69.9
2017-07-28T09:30:07.867Z,70.9
2017-07-28T09:31:07.557Z,70.1
2017-07-28T09:32:06.514Z,69.9
2017-07-28T09:33:06.222Z,71.7
2017-07-28T09:34:05.441Z,72
2017-07-28T09:35:04.640Z,71
2017-07-28T09:36:03.844Z,71.6
2017-07-28T09:37:03.539Z,71.7
2017-07-28T09:38:02.504Z,72.2
2017-07-28T09:40:01.096Z,73.1
2017-07-28T09:41:00.803Z,71.4
2017-07-28T09:41:59.998Z,71.2
2017-07-28T09:42:59.184Z,71.8
2017-07-28T09:43:58.661Z,70.8
2017-07-28T09:44:57.734Z,71.3
2017-07-28T09:45:57.313Z,71.3
2017-07-28T09:46:56.398Z,71.4
2017-07-28T09:47:55.868Z,72
2017-07-28T09:48:26.141Z,72
2017-07-28T09:48:56.657Z,72.7
2017-07-28T09:49:54.734Z,73
2017-07-28T09:50:53.928Z,72.7
2017-07-28T09:51:53.141Z,73.5
2017-07-28T09:52:52.710Z,74.1
2017-07-28T09:53:51.903Z,73.4
2017-07-28T09:54:51.373Z,73
2017-07-28T09:55:50.457Z,74
2017-07-28T09:56:50.047Z,72.3
2017-07-28T09:57:49.119Z,72.2
2017-07-28T09:58:48.715Z,71.1
2017-07-28T09:59:19.213Z,71.1
2017-07-28T09:59:49.718Z,71
2017-07-28T10:00:20.122Z,71
2017-07-28T10:00:50.395Z,70.8
2017-07-28T10:01:20.790Z,70.8
2017-07-28T10:01:51.290Z,70.8
2017-07-28T10:02:21.803Z,70.8
2017-07-28T10:02:52.313Z,70.8
2017-07-28T10:03:45.454Z,70
2017-07-28T10:04:44.660Z,70.1
2017-07-28T10:05:43.850Z,69.8
2017-07-28T10:06:43.312Z,69.3
2017-07-28T10:07:42.519Z,69.2
2017-07-28T10:08:41.716Z,69
2017-07-28T10:09:41.428Z,69.8
2017-07-28T10:10:40.383Z,70.2
2017-07-28T10:11:39.955Z,70.5
2017-07-28T10:12:39.140Z,71
2017-07-28T10:13:38.859Z,71.5
2017-07-28T10:14:37.938Z,71.5
2017-07-28T10:15:37.522Z,71.9
2017-07-28T10:16:36.475Z,71.8
2017-07-28T10:17:36.183Z,73.5
2017-07-28T10:18:35.266Z,71.5
2017-07-28T10:19:05.658Z,71.5
2017-07-28T10:20:34.186Z,72
2017-07-28T10:21:33.386Z,71.8
2017-07-28T10:22:32.584Z,72.1
2017-07-28T10:23:32.044Z,73.1
2017-07-28T10:24:31.231Z,73.4
2017-07-28T10:25:30.809Z,74.3
2017-07-28T10:26:29.870Z,74.2
2017-07-28T10:27:29.598Z,76.2
2017-07-28T10:28:28.724Z,79.4
2017-07-28T10:29:27.808Z,80.7
2017-07-28T10:30:27.398Z,82
2017-07-28T10:31:26.591Z,84.2
2017-07-28T10:31:57.113Z,84.2
2017-07-28T10:32:27.637Z,85.8
2017-07-28T10:32:58.145Z,85.8
2017-07-28T10:34:24.590Z,87.5
2017-07-28T10:35:23.786Z,88.7
2017-07-28T10:36:23.129Z,89.3
2017-07-28T10:37:22.701Z,89.4
2017-07-28T10:38:22.274Z,89.8
2017-07-28T10:39:21.465Z,90.3
2017-07-28T10:40:20.543Z,90.4
2017-07-28T10:40:50.927Z,90.4
2017-07-28T10:41:21.324Z,90.2
2017-07-28T10:42:19.400Z,90.4
2017-07-28T10:43:18.611Z,91.6
2017-07-28T10:44:17.677Z,89.6
2017-07-28T10:45:17.261Z,88.3
2017-07-28T10:46:16.443Z,88.1
2017-07-28T10:47:16.025Z,89.4
2017-07-28T10:48:15.227Z,88.9
2017-07-28T10:49:14.429Z,88.9
2017-07-28T10:50:13.898Z,88
2017-07-28T10:51:13.091Z,86.4
2017-07-28T10:52:12.787Z,85.3
2017-07-28T10:53:11.987Z,84.8
2017-07-28T10:54:11.173Z,85
2017-07-28T10:55:10.394Z,85.8
2017-07-28T10:56:09.863Z,85.3
2017-07-28T10:57:09.057Z,85.3
2017-07-28T10:58:08.744Z,85.5
2017-07-28T10:59:07.830Z,83.9
2017-07-28T11:00:07.398Z,83
2017-07-28T11:01:06.361Z,83
2017-07-28T11:02:05.947Z,81.3
2017-07-28T11:03:05.031Z,80.7
2017-07-28T11:04:04.613Z,80.7
2017-07-28T11:05:03.826Z,78.9
2017-07-28T11:06:03.029Z,78.3
2017-07-28T11:07:02.731Z,76.3
2017-07-28T11:08:02.062Z,77.7
2017-07-28T11:09:01.257Z,77.6
2017-07-28T11:10:00.614Z,77.4
2017-07-28T11:10:59.853Z,76.4
2017-07-28T11:11:59.559Z,75.5
2017-07-28T11:12:30.051Z,75.5
2017-07-28T11:13:00.331Z,75.3
2017-07-28T11:13:30.729Z,75.3
2017-07-28T11:14:00.998Z,74.6
2017-07-28T11:14:57.556Z,75.1
2017-07-28T11:15:56.628Z,75.3
2017-07-28T11:16:55.851Z,74.3
2017-07-28T11:17:55.561Z,74.5
2017-07-28T11:18:54.532Z,75
2017-07-28T11:19:54.111Z,73.8
2017-07-28T11:20:53.295Z,76.1
2017-07-28T11:21:52.880Z,72.6
2017-07-28T11:22:52.076Z,68.9
2017-07-28T11:23:51.545Z,69.3
2017-07-28T11:24:50.746Z,66.1
2017-07-28T11:25:50.213Z,64.4
2017-07-28T11:26:49.418Z,63.6
2017-07-28T11:27:49.211Z,63.8
2017-07-28T11:28:48.407Z,63.9
2017-07-28T11:29:47.598Z,63.4
2017-07-28T11:30:47.299Z,64.5
2017-07-28T11:31:46.356Z,64.2
2017-07-28T11:32:45.567Z,64
2017-07-28T11:33:45.266Z,64.3
2017-07-28T11:34:44.620Z,63.5
2017-07-28T11:35:43.825Z,64.4
2017-07-28T11:36:43.520Z,63.4
2017-07-28T11:37:42.714Z,64.1
2017-07-28T11:38:41.684Z,63.6
2017-07-28T11:39:41.535Z,63.3
2017-07-28T11:40:40.992Z,61.6
2017-07-28T11:41:40.182Z,61.5
2017-07-28T11:42:39.756Z,61
2017-07-28T11:43:38.971Z,61.5
2017-07-28T11:44:37.927Z,61.3
2017-07-28T11:45:37.624Z,59.7
2017-07-28T11:46:37.223Z,59.2
2017-07-28T11:47:36.417Z,58.4
2017-07-28T11:48:35.885Z,59.5
2017-07-28T11:49:34.961Z,59.3
2017-07-28T11:51:33.939Z,59.2
2017-07-28T11:52:33.139Z,60.3
2017-07-28T11:53:32.715Z,59.1
2017-07-28T11:55:31.306Z,60.1
2017-07-28T11:56:30.768Z,60.1
2017-07-28T11:57:30.230Z,61
2017-07-28T11:58:29.807Z,59.8
2017-07-28T11:59:28.993Z,61
2017-07-28T12:00:28.587Z,60.9
2017-07-28T12:01:27.786Z,61.6
2017-07-28T12:02:27.366Z,60.4
2017-07-28T12:03:26.554Z,60.4
2017-07-28T12:04:25.752Z,60
2017-07-28T12:05:25.477Z,60.2
2017-07-28T12:06:24.679Z,59.7
2017-07-28T12:07:24.137Z,59.7
2017-07-28T12:09:22.712Z,59.9
2017-07-28T12:10:22.403Z,59.9
2017-07-28T12:11:21.592Z,59.5
2017-07-28T12:12:21.292Z,59.7
2017-07-28T12:13:20.374Z,59.5
2017-07-28T12:14:20.076Z,59.4
2017-07-28T12:15:19.282Z,58.9
2017-07-28T12:16:18.368Z,58.4
2017-07-28T12:17:18.071Z,58.7
2017-07-28T12:18:17.649Z,59.1
2017-07-28T12:19:16.730Z,59.1
2017-07-28T12:19:47.236Z,59.1
2017-07-28T12:20:17.740Z,58.7
2017-07-28T12:20:48.123Z,58.7
2017-07-28T12:21:18.508Z,59.4
2017-07-28T12:21:49.163Z,59.4
2017-07-28T12:22:19.561Z,58.6
2017-07-28T12:22:49.961Z,58.6
2017-07-28T12:23:20.471Z,57.8
2017-07-28T12:23:50.980Z,57.8
2017-07-28T12:25:13.310Z,59.2
2017-07-28T12:27:12.172Z,59.3
2017-07-28T12:28:11.377Z,58.3
2017-07-28T12:29:10.578Z,57.2
2017-07-28T12:30:10.279Z,58.2
2017-07-28T12:31:09.627Z,58.2
2017-07-28T12:32:08.699Z,57.5
2017-07-28T12:33:08.409Z,57.1
2017-07-28T12:34:07.482Z,56.9
2017-07-28T12:35:07.463Z,56.2
2017-07-28T12:36:06.316Z,56.4
2017-07-28T12:37:05.897Z,56.2
2017-07-28T12:38:05.472Z,55.9
2017-07-28T12:39:05.399Z,55.6
2017-07-28T12:40:04.235Z,54.9
2017-07-28T12:40:34.622Z,54.9
2017-07-28T12:41:05.125Z,54.6
2017-07-28T12:42:03.080Z,53.7
2017-07-28T12:43:02.537Z,54
2017-07-28T12:45:01.121Z,54.4
2017-07-28T12:46:00.705Z,54
2017-07-28T12:47:00.182Z,53.8
2017-07-28T12:47:59.266Z,54
2017-07-28T12:48:58.729Z,54.1
2017-07-28T12:49:58.436Z,53.5
2017-07-28T12:50:57.644Z,54.4
2017-07-28T12:51:57.344Z,53.4
2017-07-28T12:52:56.414Z,53.7
2017-07-28T12:53:26.933Z,53.7
2017-07-28T12:54:55.215Z,54.3
2017-07-28T12:55:54.912Z,52.8
2017-07-28T12:56:54.108Z,52.7
2017-07-28T12:57:53.799Z,52.8
2017-07-28T12:58:52.998Z,50.6
2017-07-28T12:59:52.182Z,50.5
2017-07-28T13:00:51.653Z,50.1
2017-07-28T13:01:51.110Z,51
2017-07-28T13:02:50.686Z,51.5
2017-07-28T13:03:50.276Z,52.3
2017-07-28T13:04:49.232Z,52.7
2017-07-28T13:05:48.810Z,52.8
2017-07-28T13:06:48.402Z,52.2
2017-07-28T13:08:46.981Z,52.8
2017-07-28T13:09:46.570Z,52.4
2017-07-28T13:10:46.157Z,53.4
2017-07-28T13:11:45.113Z,53.7
2017-07-28T13:12:44.809Z,53.4
2017-07-28T13:13:44.393Z,53.1
2017-07-28T13:14:43.464Z,54
2017-07-28T13:15:43.169Z,53.2
2017-07-28T13:16:42.363Z,52.8